Andesborg — PCLC — position and weather

sailwx.info

Track history (hours):
 
Tides and Currents Weather Stations Pressure Air Temp Water Temp Dewpoint Dewpoint Depression Visibility Wind Speed Wind Dir Waves Ship Positions

Andesborg

Last reported at 2017-Oct-14 06:42 UTC. Time now 2017-Oct-17 00:53 UTC.
Position N 29°24' W 094°49'.

Length 142 m; draft 6.8 m.

Type: Cargo ship. MMSI: 246797000.

Date/timePositionNaut miles runAvg speedWind from/ knotsBaromVisibWave heightAir tempDewpointWater temp
2017-Oct-14 06:42N 29°24' W 094°49'2 9.0
2017-Oct-14 06:29N 29°26' W 094°50'4 8.8
2017-Oct-14 06:00N 29°30' W 094°52'510.6
2017-Oct-14 05:30N 29°34' W 094°55'612.6
2017-Oct-14 05:00N 29°40' W 094°58'510.1
2017-Oct-14 04:30N 29°44' W 095°02'4 7.3
2017-Oct-14 03:59N 29°45' W 095°06'3 6.5
2017-Oct-14 03:30N 29°44' W 095°09'2 4.0
2017-Oct-14 03:00N 29°45' W 095°12'2 4.4
2017-Oct-14 02:27N 29°43' W 095°14'  
2017-Oct-10 23:50N 29°43' W 095°15'0 0.0
2017-Oct-10 12:50N 29°43' W 095°15'0 0.0
2017-Oct-10 12:26N 29°43' W 095°15'0 0.0
2017-Oct-10 10:50N 29°43' W 095°15'0 0.0
2017-Oct-10 09:56N 29°43' W 095°15'0 0.0
2017-Oct-10 08:08N 29°43' W 095°15'0 0.0
2017-Oct-10 07:50N 29°43' W 095°15'0 0.0
2017-Oct-10 07:26N 29°43' W 095°15'0 0.0
2017-Oct-10 06:38N 29°43' W 095°15'0 0.0
2017-Oct-10 06:02N 29°43' W 095°15'0 0.0
2017-Oct-10 05:50N 29°43' W 095°15'0 0.0
2017-Oct-10 05:20N 29°43' W 095°15'0 0.0
2017-Oct-10 04:50N 29°43' W 095°15'0 0.0
2017-Oct-10 02:26N 29°43' W 095°15'0 0.0
2017-Oct-10 01:50N 29°43' W 095°15'0 0.0
2017-Oct-10 01:29N 29°43' W 095°15'0 0.0
2017-Oct-09 01:44N 29°43' W 095°15'0 0.2
2017-Oct-09 01:30N 29°43' W 095°15'1 2.1
2017-Oct-09 00:56N 29°44' W 095°16'1 2.0
2017-Oct-09 00:23N 29°44' W 095°17'0 0.0
2017-Oct-08 23:56N 29°44' W 095°17'0 0.0
2017-Oct-08 22:53N 29°44' W 095°17'0 0.0
2017-Oct-08 22:26N 29°44' W 095°17'0 0.0
2017-Oct-08 21:59N 29°44' W 095°17'0 0.0
2017-Oct-08 21:11N 29°44' W 095°17'0 0.0
2017-Oct-08 20:56N 29°44' W 095°17'0 0.0
2017-Oct-08 20:29N 29°44' W 095°17'0 0.0
2017-Oct-08 19:56N 29°44' W 095°17'0 0.0
2017-Oct-08 19:14N 29°44' W 095°17'0 0.0
2017-Oct-08 18:59N 29°44' W 095°17'0 0.0
2017-Oct-08 18:29N 29°44' W 095°17'0 0.0
2017-Oct-08 17:56N 29°44' W 095°17'0 0.0
2017-Oct-08 17:29N 29°44' W 095°17'0 0.0
2017-Oct-08 16:59N 29°44' W 095°17'0 0.0
2017-Oct-08 16:26N 29°44' W 095°17'0 0.0
2017-Oct-08 15:59N 29°44' W 095°17'0 0.0
2017-Oct-08 15:29N 29°44' W 095°17'0 0.0
2017-Oct-08 14:59N 29°44' W 095°17'0 0.0
2017-Oct-08 14:29N 29°44' W 095°17'0 0.0
2017-Oct-08 13:53N 29°44' W 095°17'0 0.0
2017-Oct-08 13:29N 29°44' W 095°17'0 0.0
2017-Oct-08 12:59N 29°44' W 095°17'0 0.0
2017-Oct-08 12:26N 29°44' W 095°17'0 0.0
2017-Oct-08 11:56N 29°44' W 095°17'0 0.0
2017-Oct-08 11:23N 29°44' W 095°17'0 0.0
2017-Oct-08 10:59N 29°44' W 095°17'0 0.0
2017-Oct-08 10:26N 29°44' W 095°17'0 0.0
2017-Oct-08 09:47N 29°44' W 095°17'0 0.0
2017-Oct-08 09:23N 29°44' W 095°17'0 0.0
2017-Oct-08 08:59N 29°44' W 095°17'0 0.0
2017-Oct-08 08:26N 29°44' W 095°17'0 0.0
2017-Oct-08 07:59N 29°44' W 095°17'0 0.0
2017-Oct-08 07:29N 29°44' W 095°17'0 0.0
2017-Oct-08 06:50N 29°44' W 095°17'0 0.0
2017-Oct-08 06:26N 29°44' W 095°17'0 0.0
2017-Oct-08 05:47N 29°44' W 095°17'0 0.0
2017-Oct-08 05:29N 29°44' W 095°17'0 0.0
2017-Oct-08 04:59N 29°44' W 095°17'0 0.0
2017-Oct-08 04:29N 29°44' W 095°17'0 0.0
2017-Oct-08 03:41N 29°44' W 095°17'0 0.0
2017-Oct-08 03:29N 29°44' W 095°17'0 0.0
2017-Oct-08 02:59N 29°44' W 095°17'0 0.0
2017-Oct-08 02:29N 29°44' W 095°17'0 0.0
2017-Oct-08 01:59N 29°44' W 095°17'0 0.0
2017-Oct-08 01:29N 29°44' W 095°17'0 0.0
2017-Oct-08 00:59N 29°44' W 095°17'0 0.0
2017-Oct-08 00:29N 29°44' W 095°17'0 0.0
2017-Oct-07 23:59N 29°44' W 095°17'0 0.0
2017-Oct-07 23:29N 29°44' W 095°17'0 0.0
2017-Oct-07 22:53N 29°44' W 095°17'0 0.0
2017-Oct-07 22:23N 29°44' W 095°17'0 0.0
2017-Oct-07 21:53N 29°44' W 095°17'0 0.0
2017-Oct-07 21:26N 29°44' W 095°17'0 0.0
2017-Oct-07 20:59N 29°44' W 095°17'0 0.0
2017-Oct-07 20:29N 29°44' W 095°17'0 0.0
2017-Oct-07 19:59N 29°44' W 095°17'0 0.0
2017-Oct-07 19:29N 29°44' W 095°17'0 0.0
2017-Oct-07 18:53N 29°44' W 095°17'0 0.0
2017-Oct-07 18:20N 29°44' W 095°17'0 0.0
2017-Oct-07 17:56N 29°44' W 095°17'0 0.0
2017-Oct-07 17:23N 29°44' W 095°17'0 0.0
2017-Oct-07 16:59N 29°44' W 095°17'0 0.0
2017-Oct-07 16:29N 29°44' W 095°17'0 0.0
2017-Oct-07 15:53N 29°44' W 095°17'0 0.0
2017-Oct-07 15:29N 29°44' W 095°17'0 0.0
2017-Oct-07 14:53N 29°44' W 095°17'0 0.0
2017-Oct-07 14:29N 29°44' W 095°17'0 0.0
2017-Oct-07 13:59N 29°44' W 095°17'0 0.0
2017-Oct-07 13:29N 29°44' W 095°17'0 0.0
2017-Oct-07 12:44N 29°44' W 095°17'0 0.0
2017-Oct-07 12:29N 29°44' W 095°17'0 0.0
2017-Oct-07 11:53N 29°44' W 095°17'0 0.0
2017-Oct-07 11:29N 29°44' W 095°17'0 0.0
2017-Oct-07 10:59N 29°44' W 095°17'0 0.0
2017-Oct-07 10:29N 29°44' W 095°17'0 0.0
2017-Oct-07 09:59N 29°44' W 095°17'0 0.0
2017-Oct-07 09:29N 29°44' W 095°17'0 0.0
2017-Oct-07 08:59N 29°44' W 095°17'0 0.0
2017-Oct-07 08:26N 29°44' W 095°17'0 0.0
2017-Oct-07 07:56N 29°44' W 095°17'0 0.0
2017-Oct-07 07:26N 29°44' W 095°17'0 0.0
2017-Oct-07 06:53N 29°44' W 095°17'0 0.0
2017-Oct-07 06:25N 29°44' W 095°17'0 0.0
2017-Oct-07 05:57N 29°44' W 095°17'0 0.0
2017-Oct-07 05:30N 29°44' W 095°17'0 0.0
2017-Oct-07 04:54N 29°44' W 095°17'0 0.0
2017-Oct-07 04:30N 29°44' W 095°17'0 0.0
2017-Oct-07 03:59N 29°44' W 095°17'0 0.0
2017-Oct-07 03:26N 29°44' W 095°17'0 0.0
2017-Oct-07 03:00N 29°44' W 095°17'0 0.0
2017-Oct-07 02:30N 29°44' W 095°17'0 0.0
2017-Oct-07 02:00N 29°44' W 095°17'1 1.4
2017-Oct-07 01:30N 29°44' W 095°17'2 3.9
2017-Oct-07 00:55N 29°43' W 095°14'2 5.6
2017-Oct-07 00:30N 29°45' W 095°12'1 0.4
2017-Oct-06 21:59N 29°45' W 095°11'0 0.0
2017-Oct-06 12:08N 29°45' W 095°11'0 0.0
2017-Oct-06 11:50N 29°45' W 095°11'0 0.0
2017-Oct-06 11:26N 29°45' W 095°11'0 0.0
2017-Oct-06 10:56N 29°45' W 095°11'0 0.0
2017-Oct-06 09:14N 29°45' W 095°11'0 0.0
2017-Oct-06 08:41N 29°45' W 095°11'0 0.0
2017-Oct-06 08:20N 29°45' W 095°11'0 0.0
2017-Oct-06 07:56N 29°45' W 095°11'0 0.0
2017-Oct-06 07:28N 29°45' W 095°11'0 0.0
2017-Oct-06 05:28N 29°45' W 095°11'0 0.9
2017-Oct-06 05:00N 29°45' W 095°10'2 5.0
2017-Oct-06 04:31N 29°44' W 095°07'3 6.1
2017-Oct-06 04:00N 29°45' W 095°04'4 7.5
2017-Oct-06 03:30N 29°42' W 095°01'510.4
2017-Oct-06 03:00N 29°38' W 094°58'511.0
2017-Oct-06 02:30N 29°33' W 094°55'713.9
2017-Oct-06 02:01N 29°27' W 094°51'  
Track history (hours):
 
Tides and Currents Weather Stations Pressure Air Temp Water Temp Dewpoint Dewpoint Depression Visibility Wind Speed Wind Dir Waves Ship Positions

Andesborg

Last reported at 2017-Oct-14 06:42 UTC. Time now 2017-Oct-17 00:53 UTC.
Position N 29°24' W 094°49'.

Length 142 m; draft 6.8 m.

Type: Cargo ship. MMSI: 246797000.

Date/timePositionNaut miles runAvg speedWind from/ knotsBaromVisibWave heightAir tempDewpointWater temp
2017-Oct-14 06:42N 29°24' W 094°49'2 9.0
2017-Oct-14 06:29N 29°26' W 094°50'4 8.8
2017-Oct-14 06:00N 29°30' W 094°52'510.6
2017-Oct-14 05:30N 29°34' W 094°55'612.6
2017-Oct-14 05:00N 29°40' W 094°58'510.1
2017-Oct-14 04:30N 29°44' W 095°02'4 7.3
2017-Oct-14 03:59N 29°45' W 095°06'3 6.5
2017-Oct-14 03:30N 29°44' W 095°09'2 4.0
2017-Oct-14 03:00N 29°45' W 095°12'2 4.4
2017-Oct-14 02:27N 29°43' W 095°14'  
2017-Oct-10 23:50N 29°43' W 095°15'0 0.0
2017-Oct-10 12:50N 29°43' W 095°15'0 0.0
2017-Oct-10 12:26N 29°43' W 095°15'0 0.0
2017-Oct-10 10:50N 29°43' W 095°15'0 0.0
2017-Oct-10 09:56N 29°43' W 095°15'0 0.0
2017-Oct-10 08:08N 29°43' W 095°15'0 0.0
2017-Oct-10 07:50N 29°43' W 095°15'0 0.0
2017-Oct-10 07:26N 29°43' W 095°15'0 0.0
2017-Oct-10 06:38N 29°43' W 095°15'0 0.0
2017-Oct-10 06:02N 29°43' W 095°15'0 0.0
2017-Oct-10 05:50N 29°43' W 095°15'0 0.0
2017-Oct-10 05:20N 29°43' W 095°15'0 0.0
2017-Oct-10 04:50N 29°43' W 095°15'0 0.0
2017-Oct-10 02:26N 29°43' W 095°15'0 0.0
2017-Oct-10 01:50N 29°43' W 095°15'0 0.0
2017-Oct-10 01:29N 29°43' W 095°15'0 0.0
2017-Oct-09 01:44N 29°43' W 095°15'0 0.2
2017-Oct-09 01:30N 29°43' W 095°15'1 2.1
2017-Oct-09 00:56N 29°44' W 095°16'1 2.0
2017-Oct-09 00:23N 29°44' W 095°17'0 0.0
2017-Oct-08 23:56N 29°44' W 095°17'0 0.0
2017-Oct-08 22:53N 29°44' W 095°17'0 0.0
2017-Oct-08 22:26N 29°44' W 095°17'0 0.0
2017-Oct-08 21:59N 29°44' W 095°17'0 0.0
2017-Oct-08 21:11N 29°44' W 095°17'0 0.0
2017-Oct-08 20:56N 29°44' W 095°17'0 0.0
2017-Oct-08 20:29N 29°44' W 095°17'0 0.0
2017-Oct-08 19:56N 29°44' W 095°17'0 0.0
2017-Oct-08 19:14N 29°44' W 095°17'0 0.0
2017-Oct-08 18:59N 29°44' W 095°17'0 0.0
2017-Oct-08 18:29N 29°44' W 095°17'0 0.0
2017-Oct-08 17:56N 29°44' W 095°17'0 0.0
2017-Oct-08 17:29N 29°44' W 095°17'0 0.0
2017-Oct-08 16:59N 29°44' W 095°17'0 0.0
2017-Oct-08 16:26N 29°44' W 095°17'0 0.0
2017-Oct-08 15:59N 29°44' W 095°17'0 0.0
2017-Oct-08 15:29N 29°44' W 095°17'0 0.0
2017-Oct-08 14:59N 29°44' W 095°17'0 0.0
2017-Oct-08 14:29N 29°44' W 095°17'0 0.0
2017-Oct-08 13:53N 29°44' W 095°17'0 0.0
2017-Oct-08 13:29N 29°44' W 095°17'0 0.0
2017-Oct-08 12:59N 29°44' W 095°17'0 0.0
2017-Oct-08 12:26N 29°44' W 095°17'0 0.0
2017-Oct-08 11:56N 29°44' W 095°17'0 0.0
2017-Oct-08 11:23N 29°44' W 095°17'0 0.0
2017-Oct-08 10:59N 29°44' W 095°17'0 0.0
2017-Oct-08 10:26N 29°44' W 095°17'0 0.0
2017-Oct-08 09:47N 29°44' W 095°17'0 0.0
2017-Oct-08 09:23N 29°44' W 095°17'0 0.0
2017-Oct-08 08:59N 29°44' W 095°17'0 0.0
2017-Oct-08 08:26N 29°44' W 095°17'0 0.0
2017-Oct-08 07:59N 29°44' W 095°17'0 0.0
2017-Oct-08 07:29N 29°44' W 095°17'0 0.0
2017-Oct-08 06:50N 29°44' W 095°17'0 0.0
2017-Oct-08 06:26N 29°44' W 095°17'0 0.0
2017-Oct-08 05:47N 29°44' W 095°17'0 0.0
2017-Oct-08 05:29N 29°44' W 095°17'0 0.0
2017-Oct-08 04:59N 29°44' W 095°17'0 0.0
2017-Oct-08 04:29N 29°44' W 095°17'0 0.0
2017-Oct-08 03:41N 29°44' W 095°17'0 0.0
2017-Oct-08 03:29N 29°44' W 095°17'0 0.0
2017-Oct-08 02:59N 29°44' W 095°17'0 0.0
2017-Oct-08 02:29N 29°44' W 095°17'0 0.0
2017-Oct-08 01:59N 29°44' W 095°17'0 0.0
2017-Oct-08 01:29N 29°44' W 095°17'0 0.0
2017-Oct-08 00:59N 29°44' W 095°17'0 0.0
2017-Oct-08 00:29N 29°44' W 095°17'0 0.0
2017-Oct-07 23:59N 29°44' W 095°17'0 0.0
2017-Oct-07 23:29N 29°44' W 095°17'0 0.0
2017-Oct-07 22:53N 29°44' W 095°17'0 0.0
2017-Oct-07 22:23N 29°44' W 095°17'0 0.0
2017-Oct-07 21:53N 29°44' W 095°17'0 0.0
2017-Oct-07 21:26N 29°44' W 095°17'0 0.0
2017-Oct-07 20:59N 29°44' W 095°17'0 0.0
2017-Oct-07 20:29N 29°44' W 095°17'0 0.0
2017-Oct-07 19:59N 29°44' W 095°17'0 0.0
2017-Oct-07 19:29N 29°44' W 095°17'0 0.0
2017-Oct-07 18:53N 29°44' W 095°17'0 0.0
2017-Oct-07 18:20N 29°44' W 095°17'0 0.0
2017-Oct-07 17:56N 29°44' W 095°17'0 0.0
2017-Oct-07 17:23N 29°44' W 095°17'0 0.0
2017-Oct-07 16:59N 29°44' W 095°17'0 0.0
2017-Oct-07 16:29N 29°44' W 095°17'0 0.0
2017-Oct-07 15:53N 29°44' W 095°17'0 0.0
2017-Oct-07 15:29N 29°44' W 095°17'0 0.0
2017-Oct-07 14:53N 29°44' W 095°17'0 0.0
2017-Oct-07 14:29N 29°44' W 095°17'0 0.0
2017-Oct-07 13:59N 29°44' W 095°17'0 0.0
2017-Oct-07 13:29N 29°44' W 095°17'0 0.0
2017-Oct-07 12:44N 29°44' W 095°17'0 0.0
2017-Oct-07 12:29N 29°44' W 095°17'0 0.0
2017-Oct-07 11:53N 29°44' W 095°17'0 0.0
2017-Oct-07 11:29N 29°44' W 095°17'0 0.0
2017-Oct-07 10:59N 29°44' W 095°17'0 0.0
2017-Oct-07 10:29N 29°44' W 095°17'0 0.0
2017-Oct-07 09:59N 29°44' W 095°17'0 0.0
2017-Oct-07 09:29N 29°44' W 095°17'0 0.0
2017-Oct-07 08:59N 29°44' W 095°17'0 0.0
2017-Oct-07 08:26N 29°44' W 095°17'0 0.0
2017-Oct-07 07:56N 29°44' W 095°17'0 0.0
2017-Oct-07 07:26N 29°44' W 095°17'0 0.0
2017-Oct-07 06:53N 29°44' W 095°17'0 0.0
2017-Oct-07 06:25N 29°44' W 095°17'0 0.0
2017-Oct-07 05:57N 29°44' W 095°17'0 0.0
2017-Oct-07 05:30N 29°44' W 095°17'0 0.0
2017-Oct-07 04:54N 29°44' W 095°17'0 0.0
2017-Oct-07 04:30N 29°44' W 095°17'0 0.0
2017-Oct-07 03:59N 29°44' W 095°17'0 0.0
2017-Oct-07 03:26N 29°44' W 095°17'0 0.0
2017-Oct-07 03:00N 29°44' W 095°17'0 0.0
2017-Oct-07 02:30N 29°44' W 095°17'0 0.0
2017-Oct-07 02:00N 29°44' W 095°17'1 1.4
2017-Oct-07 01:30N 29°44' W 095°17'2 3.9
2017-Oct-07 00:55N 29°43' W 095°14'2 5.6
2017-Oct-07 00:30N 29°45' W 095°12'1 0.4
2017-Oct-06 21:59N 29°45' W 095°11'0 0.0
2017-Oct-06 12:08N 29°45' W 095°11'0 0.0
2017-Oct-06 11:50N 29°45' W 095°11'0 0.0
2017-Oct-06 11:26N 29°45' W 095°11'0 0.0
2017-Oct-06 10:56N 29°45' W 095°11'0 0.0
2017-Oct-06 09:14N 29°45' W 095°11'0 0.0
2017-Oct-06 08:41N 29°45' W 095°11'0 0.0
2017-Oct-06 08:20N 29°45' W 095°11'0 0.0
2017-Oct-06 07:56N 29°45' W 095°11'0 0.0
2017-Oct-06 07:28N 29°45' W 095°11'0 0.0
2017-Oct-06 05:28N 29°45' W 095°11'0 0.9
2017-Oct-06 05:00N 29°45' W 095°10'2 5.0
2017-Oct-06 04:31N 29°44' W 095°07'3 6.1
2017-Oct-06 04:00N 29°45' W 095°04'4 7.5
2017-Oct-06 03:30N 29°42' W 095°01'510.4
2017-Oct-06 03:00N 29°38' W 094°58'511.0
2017-Oct-06 02:30N 29°33' W 094°55'713.9
2017-Oct-06 02:01N 29°27' W 094°51'  

Dump ship's entire track history